»·PEaware :: RNGR819 KNGP-KNGP

RNGR819 :: KNGP-KNGP

FLIGHT INFORMATION

Flight Status: Arrived
Operator: Unknown
More flights by this operator :: More flights under this callsign
Pilot: USN Avenger (31125)
Aircraft: BEECH AIRCRAFT T-6A TEXAN
(TEX2)
More flights by this aircraft type
Origin: KNGP Corpus Christi NAS/Truax
United States
Destination: KNGP Corpus Christi NAS/Truax
United States
More flights between these airports :: More routes between these airports
Route: PORTLAND LOW KNGT KTFP
File this flight plan on PilotEdge
Remarks:
Altitude:
(Current/Filed)
4,500ft
Speed:
(Current/Filed)
240kts
Departed: 16-Nov-23 07:43 AM
Arrived: 16-Nov-23 08:29 AM
Distance/Time
Traveled:
1nm/0:46
Distance/Time
To Go:
Arrived

Flight Plot

Page will automatically refresh every two minutes.

Flight plan parsing failed; only flown route is shown


Map Options




Map Legend


Flown Route
Filed Route
Departure Airport
Arrival Airport
Navaid (VOR, NDB)
Fix

Horizontal Profiles

Position Reports

Time Latitude Longitude Heading Altitude Ground
Speed
16-Nov-23 07:36 27.698548 -97.284287 158 22ft 0kts
16-Nov-23 07:37 27.698547 -97.284286 158 22ft 0kts
16-Nov-23 07:38 27.698213 -97.284641 251 22ft 9kts
16-Nov-23 07:39 27.698876 -97.287135 224 22ft 12kts
16-Nov-23 07:40 27.695856 -97.290928 223 22ft 0kts
16-Nov-23 07:41 27.694935 -97.291425 134 22ft 0kts
16-Nov-23 07:42 27.683983 -97.278181 128 273ft 151kts
16-Nov-23 07:43 27.679206 -97.223802 10 531ft 236kts
16-Nov-23 07:44 27.741988 -97.231782 352 568ft 229kts
16-Nov-23 07:45 27.805100 -97.249976 341 513ft 236kts
16-Nov-23 07:46 27.867965 -97.270189 0 768ft 228kts
16-Nov-23 07:47 27.923791 -97.285260 333 2504ft 206kts
16-Nov-23 07:48 27.975782 -97.312429 331 4428ft 221kts
16-Nov-23 07:49 28.033180 -97.355121 325 4539ft 259kts
16-Nov-23 07:50 28.091726 -97.401870 327 4474ft 254kts
16-Nov-23 07:51 28.151495 -97.444614 326 4522ft 254kts
16-Nov-23 07:52 28.207991 -97.492880 324 4550ft 254kts
16-Nov-23 07:53 28.269413 -97.531949 331 4524ft 253kts
16-Nov-23 07:54 28.332979 -97.566003 337 4525ft 252kts
16-Nov-23 07:55 28.396966 -97.598293 332 4515ft 257kts
16-Nov-23 07:56 28.464152 -97.638349 333 3613ft 284kts
16-Nov-23 07:57 28.537437 -97.672327 343 2425ft 287kts
16-Nov-23 07:58 28.599291 -97.690265 37 4721ft 176kts
16-Nov-23 07:59 28.630211 -97.636107 107 5629ft 234kts
16-Nov-23 08:00 28.569223 -97.599239 143 5584ft 266kts
16-Nov-23 08:01 28.510958 -97.550598 143 4735ft 265kts
16-Nov-23 08:02 28.453114 -97.503114 144 2781ft 247kts
16-Nov-23 08:03 28.397908 -97.458108 143 2552ft 244kts
16-Nov-23 08:04 28.342490 -97.413450 145 2620ft 245kts
16-Nov-23 08:05 28.287215 -97.367053 145 2556ft 247kts
16-Nov-23 08:06 28.230984 -97.322556 143 2559ft 246kts
16-Nov-23 08:07 28.173871 -97.280015 151 2559ft 246kts
16-Nov-23 08:08 28.112362 -97.246537 151 2682ft 244kts
16-Nov-23 08:09 28.051736 -97.217711 175 2652ft 238kts
16-Nov-23 08:10 27.984904 -97.209436 184 2605ft 243kts
16-Nov-23 08:11 27.944169 -97.243034 278 1563ft 157kts
16-Nov-23 08:12 27.933116 -97.249219 82 1136ft 208kts
16-Nov-23 08:13 27.905672 -97.198483 85 1019ft 168kts
16-Nov-23 08:14 27.929988 -97.213089 281 546ft 117kts
16-Nov-23 08:15 27.908420 -97.207027 138 179ft 125kts
16-Nov-23 08:16 27.912599 -97.191416 318 809ft 127kts
16-Nov-23 08:17 27.928638 -97.219972 205 416ft 120kts
16-Nov-23 08:18 27.903038 -97.201578 134 470ft 148kts
16-Nov-23 08:19 27.928029 -97.159996 64 1513ft 210kts
16-Nov-23 08:20 27.891369 -97.131072 203 964ft 200kts
16-Nov-23 08:21 27.842258 -97.160146 201 1067ft 203kts
16-Nov-23 08:22 27.785390 -97.167308 180 1048ft 210kts
16-Nov-23 08:23 27.744696 -97.195264 258 1037ft 202kts
16-Nov-23 08:24 27.732795 -97.258700 257 1043ft 206kts
16-Nov-23 08:25 27.705785 -97.301578 141 947ft 203kts
16-Nov-23 08:26 27.697693 -97.274373 309 735ft 127kts
16-Nov-23 08:27 27.696982 -97.293645 134 108ft 107kts
16-Nov-23 08:28 27.687212 -97.282028 55 22ft 8kts

Navigation Log

Ident Type
Flight plan parsing failed, navigation log unavailable